sensor_id;sensor_type;location;lat;lon;timestamp;P1;durP1;ratioP1;P2;durP2;ratioP2
76795;SDS011;65745;50.278;18.192;2023-06-10T00:01:48;23.10;;;18.00;;
76795;SDS011;65745;50.278;18.192;2023-06-10T00:04:21;27.90;;;20.40;;
76795;SDS011;65745;50.278;18.192;2023-06-10T00:06:53;22.90;;;17.60;;
76795;SDS011;65745;50.278;18.192;2023-06-10T00:09:26;25.80;;;21.40;;
76795;SDS011;65745;50.278;18.192;2023-06-10T00:11:58;25.70;;;20.00;;
76795;SDS011;65745;50.278;18.192;2023-06-10T00:14:30;22.50;;;19.30;;
76795;SDS011;65745;50.278;18.192;2023-06-10T00:17:03;24.30;;;19.10;;
76795;SDS011;65745;50.278;18.192;2023-06-10T00:19:39;22.40;;;17.40;;
76795;SDS011;65745;50.278;18.192;2023-06-10T00:22:11;21.30;;;17.20;;
76795;SDS011;65745;50.278;18.192;2023-06-10T00:24:43;21.80;;;16.30;;
76795;SDS011;65745;50.278;18.192;2023-06-10T00:27:16;19.40;;;16.10;;
76795;SDS011;65745;50.278;18.192;2023-06-10T00:29:49;19.10;;;16.80;;
76795;SDS011;65745;50.278;18.192;2023-06-10T00:32:21;21.10;;;15.70;;
76795;SDS011;65745;50.278;18.192;2023-06-10T00:34:53;18.10;;;15.80;;
76795;SDS011;65745;50.278;18.192;2023-06-10T00:37:25;21.00;;;16.40;;
76795;SDS011;65745;50.278;18.192;2023-06-10T00:39:58;18.00;;;15.10;;
76795;SDS011;65745;50.278;18.192;2023-06-10T00:42:30;16.80;;;13.60;;
76795;SDS011;65745;50.278;18.192;2023-06-10T00:45:02;17.90;;;15.70;;
76795;SDS011;65745;50.278;18.192;2023-06-10T00:47:37;17.80;;;15.20;;
76795;SDS011;65745;50.278;18.192;2023-06-10T00:50:10;16.50;;;14.80;;
76795;SDS011;65745;50.278;18.192;2023-06-10T00:52:42;17.30;;;15.20;;
76795;SDS011;65745;50.278;18.192;2023-06-10T00:55:17;16.60;;;14.70;;
76795;SDS011;65745;50.278;18.192;2023-06-10T00:57:50;19.60;;;15.30;;
76795;SDS011;65745;50.278;18.192;2023-06-10T01:00:23;16.00;;;14.40;;
76795;SDS011;65745;50.278;18.192;2023-06-10T01:02:56;16.10;;;13.90;;
76795;SDS011;65745;50.278;18.192;2023-06-10T01:05:28;17.30;;;14.90;;
76795;SDS011;65745;50.278;18.192;2023-06-10T01:08:03;16.10;;;14.50;;
76795;SDS011;65745;50.278;18.192;2023-06-10T01:10:38;19.20;;;14.90;;
76795;SDS011;65745;50.278;18.192;2023-06-10T01:13:17;19.70;;;17.10;;
76795;SDS011;65745;50.278;18.192;2023-06-10T01:15:53;18.10;;;14.60;;
76795;SDS011;65745;50.278;18.192;2023-06-10T01:18:30;16.70;;;14.90;;
76795;SDS011;65745;50.278;18.192;2023-06-10T01:21:03;18.20;;;16.10;;
76795;SDS011;65745;50.278;18.192;2023-06-10T01:23:36;18.10;;;16.00;;
76795;SDS011;65745;50.278;18.192;2023-06-10T01:26:09;16.90;;;15.00;;
76795;SDS011;65745;50.278;18.192;2023-06-10T01:28:43;18.50;;;15.80;;
76795;SDS011;65745;50.278;18.192;2023-06-10T01:31:26;17.60;;;15.90;;
76795;SDS011;65745;50.278;18.192;2023-06-10T01:34:09;17.20;;;14.70;;
76795;SDS011;65745;50.278;18.192;2023-06-10T01:36:44;17.60;;;15.80;;
76795;SDS011;65745;50.278;18.192;2023-06-10T01:39:20;16.80;;;15.20;;
76795;SDS011;65745;50.278;18.192;2023-06-10T01:41:54;16.90;;;15.10;;
76795;SDS011;65745;50.278;18.192;2023-06-10T01:44:26;20.30;;;15.80;;
76795;SDS011;65745;50.278;18.192;2023-06-10T01:46:59;16.40;;;14.50;;
76795;SDS011;65745;50.278;18.192;2023-06-10T01:49:31;20.70;;;16.20;;
76795;SDS011;65745;50.278;18.192;2023-06-10T01:52:04;17.40;;;15.00;;
76795;SDS011;65745;50.278;18.192;2023-06-10T01:54:37;17.10;;;15.30;;
76795;SDS011;65745;50.278;18.192;2023-06-10T01:57:10;18.30;;;15.60;;
76795;SDS011;65745;50.278;18.192;2023-06-10T01:59:42;18.40;;;16.50;;
76795;SDS011;65745;50.278;18.192;2023-06-10T02:02:16;19.50;;;15.60;;
76795;SDS011;65745;50.278;18.192;2023-06-10T02:04:51;17.90;;;16.00;;
76795;SDS011;65745;50.278;18.192;2023-06-10T02:07:24;18.90;;;15.70;;
76795;SDS011;65745;50.278;18.192;2023-06-10T02:09:57;19.20;;;16.00;;
76795;SDS011;65745;50.278;18.192;2023-06-10T02:12:30;17.00;;;15.30;;
76795;SDS011;65745;50.278;18.192;2023-06-10T02:15:03;18.40;;;15.60;;
76795;SDS011;65745;50.278;18.192;2023-06-10T02:17:36;18.60;;;15.40;;
76795;SDS011;65745;50.278;18.192;2023-06-10T02:20:09;16.90;;;15.10;;
76795;SDS011;65745;50.278;18.192;2023-06-10T02:22:42;18.00;;;16.10;;
76795;SDS011;65745;50.278;18.192;2023-06-10T02:25:15;19.40;;;17.40;;
76795;SDS011;65745;50.278;18.192;2023-06-10T02:27:47;17.30;;;15.30;;
76795;SDS011;65745;50.278;18.192;2023-06-10T02:30:19;19.60;;;16.30;;
76795;SDS011;65745;50.278;18.192;2023-06-10T02:32:52;18.10;;;16.20;;
76795;SDS011;65745;50.278;18.192;2023-06-10T02:35:26;17.80;;;15.10;;
76795;SDS011;65745;50.278;18.192;2023-06-10T02:37:58;17.60;;;15.70;;
76795;SDS011;65745;50.278;18.192;2023-06-10T02:40:31;18.50;;;15.60;;
76795;SDS011;65745;50.278;18.192;2023-06-10T02:43:03;17.50;;;15.70;;
76795;SDS011;65745;50.278;18.192;2023-06-10T02:45:36;18.50;;;15.50;;
76795;SDS011;65745;50.278;18.192;2023-06-10T02:48:09;16.60;;;14.70;;
76795;SDS011;65745;50.278;18.192;2023-06-10T02:50:42;19.00;;;16.20;;
76795;SDS011;65745;50.278;18.192;2023-06-10T02:53:25;19.30;;;16.70;;
76795;SDS011;65745;50.278;18.192;2023-06-10T02:56:03;17.40;;;15.60;;
76795;SDS011;65745;50.278;18.192;2023-06-10T02:58:35;20.40;;;16.20;;
76795;SDS011;65745;50.278;18.192;2023-06-10T03:01:08;18.10;;;16.30;;
76795;SDS011;65745;50.278;18.192;2023-06-10T03:03:49;20.00;;;15.20;;
76795;SDS011;65745;50.278;18.192;2023-06-10T03:06:22;18.20;;;16.40;;
76795;SDS011;65745;50.278;18.192;2023-06-10T03:08:59;20.20;;;16.00;;
76795;SDS011;65745;50.278;18.192;2023-06-10T03:11:33;18.40;;;16.40;;
76795;SDS011;65745;50.278;18.192;2023-06-10T03:14:05;17.60;;;15.70;;
76795;SDS011;65745;50.278;18.192;2023-06-10T03:16:38;20.00;;;15.60;;
76795;SDS011;65745;50.278;18.192;2023-06-10T03:19:12;20.40;;;16.80;;
76795;SDS011;65745;50.278;18.192;2023-06-10T03:21:49;18.60;;;16.70;;
76795;SDS011;65745;50.278;18.192;2023-06-10T03:24:28;19.40;;;16.00;;
76795;SDS011;65745;50.278;18.192;2023-06-10T03:27:00;20.60;;;17.10;;
76795;SDS011;65745;50.278;18.192;2023-06-10T03:29:35;20.40;;;17.30;;
76795;SDS011;65745;50.278;18.192;2023-06-10T03:32:08;21.60;;;16.60;;
76795;SDS011;65745;50.278;18.192;2023-06-10T03:34:41;19.60;;;17.40;;
76795;SDS011;65745;50.278;18.192;2023-06-10T03:37:14;19.20;;;17.00;;
76795;SDS011;65745;50.278;18.192;2023-06-10T03:39:48;18.70;;;16.70;;
76795;SDS011;65745;50.278;18.192;2023-06-10T03:42:20;21.00;;;16.60;;
76795;SDS011;65745;50.278;18.192;2023-06-10T03:44:53;18.90;;;16.90;;
76795;SDS011;65745;50.278;18.192;2023-06-10T03:47:26;19.30;;;16.70;;
76795;SDS011;65745;50.278;18.192;2023-06-10T03:50:05;18.70;;;16.80;;
76795;SDS011;65745;50.278;18.192;2023-06-10T03:52:38;20.00;;;17.80;;
76795;SDS011;65745;50.278;18.192;2023-06-10T03:55:11;24.10;;;17.10;;
76795;SDS011;65745;50.278;18.192;2023-06-10T03:57:45;20.30;;;17.90;;
76795;SDS011;65745;50.278;18.192;2023-06-10T04:00:18;20.00;;;18.00;;
76795;SDS011;65745;50.278;18.192;2023-06-10T04:02:51;19.10;;;17.10;;
76795;SDS011;65745;50.278;18.192;2023-06-10T04:05:34;20.80;;;18.40;;
76795;SDS011;65745;50.278;18.192;2023-06-10T04:08:06;20.40;;;17.80;;
76795;SDS011;65745;50.278;18.192;2023-06-10T04:10:38;20.70;;;18.20;;
76795;SDS011;65745;50.278;18.192;2023-06-10T04:13:11;21.30;;;19.00;;
76795;SDS011;65745;50.278;18.192;2023-06-10T04:15:51;20.30;;;18.10;;
76795;SDS011;65745;50.278;18.192;2023-06-10T04:18:23;22.40;;;18.80;;
76795;SDS011;65745;50.278;18.192;2023-06-10T04:20:57;27.00;;;20.90;;
76795;SDS011;65745;50.278;18.192;2023-06-10T04:23:31;20.80;;;18.70;;
76795;SDS011;65745;50.278;18.192;2023-06-10T04:26:04;24.60;;;20.90;;
76795;SDS011;65745;50.278;18.192;2023-06-10T04:28:36;21.00;;;18.30;;
76795;SDS011;65745;50.278;18.192;2023-06-10T04:31:08;21.90;;;19.60;;
76795;SDS011;65745;50.278;18.192;2023-06-10T04:33:41;22.30;;;19.80;;
76795;SDS011;65745;50.278;18.192;2023-06-10T04:36:13;23.20;;;20.70;;
76795;SDS011;65745;50.278;18.192;2023-06-10T04:38:45;23.10;;;20.10;;
76795;SDS011;65745;50.278;18.192;2023-06-10T04:41:17;22.80;;;20.30;;
76795;SDS011;65745;50.278;18.192;2023-06-10T04:43:52;24.40;;;22.00;;
76795;SDS011;65745;50.278;18.192;2023-06-10T04:46:24;23.60;;;20.60;;
76795;SDS011;65745;50.278;18.192;2023-06-10T04:48:57;24.10;;;21.60;;
76795;SDS011;65745;50.278;18.192;2023-06-10T04:51:29;22.80;;;20.40;;
76795;SDS011;65745;50.278;18.192;2023-06-10T04:54:02;23.10;;;20.70;;
76795;SDS011;65745;50.278;18.192;2023-06-10T04:56:34;24.50;;;22.00;;
76795;SDS011;65745;50.278;18.192;2023-06-10T04:59:08;23.90;;;21.50;;
76795;SDS011;65745;50.278;18.192;2023-06-10T05:01:40;24.60;;;22.10;;
76795;SDS011;65745;50.278;18.192;2023-06-10T05:04:13;22.40;;;20.20;;
76795;SDS011;65745;50.278;18.192;2023-06-10T05:06:45;22.50;;;20.10;;
76795;SDS011;65745;50.278;18.192;2023-06-10T05:09:17;23.50;;;21.00;;
76795;SDS011;65745;50.278;18.192;2023-06-10T05:11:50;26.30;;;23.60;;
76795;SDS011;65745;50.278;18.192;2023-06-10T05:14:22;26.30;;;22.80;;
76795;SDS011;65745;50.278;18.192;2023-06-10T05:16:55;25.80;;;23.10;;
76795;SDS011;65745;50.278;18.192;2023-06-10T05:19:27;25.40;;;22.90;;
76795;SDS011;65745;50.278;18.192;2023-06-10T05:21:59;25.50;;;23.00;;
76795;SDS011;65745;50.278;18.192;2023-06-10T05:24:31;25.80;;;23.10;;
76795;SDS011;65745;50.278;18.192;2023-06-10T05:27:04;24.70;;;22.10;;
76795;SDS011;65745;50.278;18.192;2023-06-10T05:29:38;24.60;;;22.30;;
76795;SDS011;65745;50.278;18.192;2023-06-10T05:32:10;24.80;;;22.30;;
76795;SDS011;65745;50.278;18.192;2023-06-10T05:34:42;27.00;;;24.50;;
76795;SDS011;65745;50.278;18.192;2023-06-10T05:37:15;26.90;;;24.10;;
76795;SDS011;65745;50.278;18.192;2023-06-10T05:39:47;25.20;;;22.50;;
76795;SDS011;65745;50.278;18.192;2023-06-10T05:42:19;21.70;;;19.30;;
76795;SDS011;65745;50.278;18.192;2023-06-10T05:44:51;25.30;;;22.80;;
76795;SDS011;65745;50.278;18.192;2023-06-10T05:47:23;25.80;;;23.30;;
76795;SDS011;65745;50.278;18.192;2023-06-10T05:49:55;29.60;;;26.80;;
76795;SDS011;65745;50.278;18.192;2023-06-10T05:52:28;25.20;;;22.80;;
76795;SDS011;65745;50.278;18.192;2023-06-10T05:55:00;25.00;;;22.60;;
76795;SDS011;65745;50.278;18.192;2023-06-10T05:57:33;27.80;;;25.10;;
76795;SDS011;65745;50.278;18.192;2023-06-10T06:00:06;27.80;;;25.00;;
76795;SDS011;65745;50.278;18.192;2023-06-10T06:02:43;25.20;;;22.60;;
76795;SDS011;65745;50.278;18.192;2023-06-10T06:05:16;22.80;;;20.40;;
76795;SDS011;65745;50.278;18.192;2023-06-10T06:07:48;24.10;;;19.10;;
76795;SDS011;65745;50.278;18.192;2023-06-10T06:10:20;20.90;;;18.80;;
76795;SDS011;65745;50.278;18.192;2023-06-10T06:12:52;21.70;;;19.60;;
76795;SDS011;65745;50.278;18.192;2023-06-10T06:15:24;23.20;;;20.80;;
76795;SDS011;65745;50.278;18.192;2023-06-10T06:17:57;20.40;;;18.40;;
76795;SDS011;65745;50.278;18.192;2023-06-10T06:20:30;20.70;;;18.80;;
76795;SDS011;65745;50.278;18.192;2023-06-10T06:23:02;23.10;;;20.80;;
76795;SDS011;65745;50.278;18.192;2023-06-10T06:25:34;23.00;;;20.40;;
76795;SDS011;65745;50.278;18.192;2023-06-10T06:28:09;20.80;;;18.70;;
76795;SDS011;65745;50.278;18.192;2023-06-10T06:33:14;19.20;;;17.20;;
76795;SDS011;65745;50.278;18.192;2023-06-10T06:35:47;20.10;;;18.20;;
76795;SDS011;65745;50.278;18.192;2023-06-10T06:38:19;24.10;;;21.80;;
76795;SDS011;65745;50.278;18.192;2023-06-10T06:40:51;23.10;;;20.90;;
76795;SDS011;65745;50.278;18.192;2023-06-10T06:43:24;23.80;;;21.50;;
76795;SDS011;65745;50.278;18.192;2023-06-10T06:46:26;20.30;;;18.40;;
76795;SDS011;65745;50.278;18.192;2023-06-10T06:48:59;19.70;;;17.90;;
76795;SDS011;65745;50.278;18.192;2023-06-10T06:51:31;19.90;;;17.90;;
76795;SDS011;65745;50.278;18.192;2023-06-10T06:54:04;17.70;;;16.00;;
76795;SDS011;65745;50.278;18.192;2023-06-10T06:56:37;16.30;;;14.80;;
76795;SDS011;65745;50.278;18.192;2023-06-10T06:59:09;17.70;;;15.90;;
76795;SDS011;65745;50.278;18.192;2023-06-10T07:01:43;16.10;;;14.50;;
76795;SDS011;65745;50.278;18.192;2023-06-10T07:04:15;16.40;;;14.80;;
76795;SDS011;65745;50.278;18.192;2023-06-10T07:06:48;15.10;;;13.50;;
76795;SDS011;65745;50.278;18.192;2023-06-10T07:09:21;14.70;;;13.40;;
76795;SDS011;65745;50.278;18.192;2023-06-10T07:11:53;14.30;;;12.90;;
76795;SDS011;65745;50.278;18.192;2023-06-10T07:14:26;15.60;;;14.20;;
76795;SDS011;65745;50.278;18.192;2023-06-10T07:16:58;13.90;;;12.60;;
76795;SDS011;65745;50.278;18.192;2023-06-10T07:19:30;14.40;;;13.00;;
76795;SDS011;65745;50.278;18.192;2023-06-10T07:22:03;14.10;;;12.70;;
76795;SDS011;65745;50.278;18.192;2023-06-10T07:24:36;14.30;;;13.10;;
76795;SDS011;65745;50.278;18.192;2023-06-10T07:27:08;12.80;;;11.70;;
76795;SDS011;65745;50.278;18.192;2023-06-10T07:29:40;12.90;;;11.70;;
76795;SDS011;65745;50.278;18.192;2023-06-10T07:32:13;12.20;;;11.00;;
76795;SDS011;65745;50.278;18.192;2023-06-10T07:34:47;13.30;;;12.00;;
76795;SDS011;65745;50.278;18.192;2023-06-10T07:37:19;13.40;;;12.20;;
76795;SDS011;65745;50.278;18.192;2023-06-10T07:39:52;11.80;;;10.60;;
76795;SDS011;65745;50.278;18.192;2023-06-10T07:42:24;10.70;;;9.50;;
76795;SDS011;65745;50.278;18.192;2023-06-10T07:44:57;9.90;;;8.90;;
76795;SDS011;65745;50.278;18.192;2023-06-10T07:47:29;10.20;;;9.20;;
76795;SDS011;65745;50.278;18.192;2023-06-10T07:50:04;10.80;;;9.80;;
76795;SDS011;65745;50.278;18.192;2023-06-10T07:52:37;12.00;;;10.90;;
76795;SDS011;65745;50.278;18.192;2023-06-10T07:55:10;10.40;;;9.20;;
76795;SDS011;65745;50.278;18.192;2023-06-10T07:57:42;10.70;;;9.40;;
76795;SDS011;65745;50.278;18.192;2023-06-10T08:00:15;12.10;;;9.80;;
76795;SDS011;65745;50.278;18.192;2023-06-10T08:02:48;10.30;;;9.30;;
76795;SDS011;65745;50.278;18.192;2023-06-10T08:05:21;10.10;;;9.00;;
76795;SDS011;65745;50.278;18.192;2023-06-10T08:07:54;12.60;;;9.90;;
76795;SDS011;65745;50.278;18.192;2023-06-10T08:10:26;10.50;;;9.60;;
76795;SDS011;65745;50.278;18.192;2023-06-10T08:12:59;9.90;;;8.90;;
76795;SDS011;65745;50.278;18.192;2023-06-10T08:15:32;9.80;;;8.90;;
76795;SDS011;65745;50.278;18.192;2023-06-10T08:18:04;10.80;;;9.70;;
76795;SDS011;65745;50.278;18.192;2023-06-10T08:20:37;11.00;;;9.90;;
76795;SDS011;65745;50.278;18.192;2023-06-10T08:23:09;10.40;;;9.40;;
76795;SDS011;65745;50.278;18.192;2023-06-10T08:25:42;11.00;;;10.00;;
76795;SDS011;65745;50.278;18.192;2023-06-10T08:28:14;11.00;;;9.80;;
76795;SDS011;65745;50.278;18.192;2023-06-10T08:30:46;11.80;;;10.70;;
76795;SDS011;65745;50.278;18.192;2023-06-10T08:33:19;11.30;;;10.20;;
76795;SDS011;65745;50.278;18.192;2023-06-10T08:35:51;10.80;;;9.70;;
76795;SDS011;65745;50.278;18.192;2023-06-10T08:38:23;11.70;;;9.10;;
76795;SDS011;65745;50.278;18.192;2023-06-10T08:40:58;9.70;;;8.80;;
76795;SDS011;65745;50.278;18.192;2023-06-10T08:43:32;10.00;;;9.00;;
76795;SDS011;65745;50.278;18.192;2023-06-10T08:46:09;10.10;;;9.10;;
76795;SDS011;65745;50.278;18.192;2023-06-10T08:48:44;10.70;;;9.10;;
76795;SDS011;65745;50.278;18.192;2023-06-10T08:51:24;8.90;;;8.00;;
76795;SDS011;65745;50.278;18.192;2023-06-10T08:53:59;11.70;;;9.70;;
76795;SDS011;65745;50.278;18.192;2023-06-10T08:56:36;10.50;;;9.60;;
76795;SDS011;65745;50.278;18.192;2023-06-10T08:59:11;10.80;;;9.80;;
76795;SDS011;65745;50.278;18.192;2023-06-10T09:01:45;11.30;;;9.90;;
76795;SDS011;65745;50.278;18.192;2023-06-10T09:04:19;10.70;;;9.70;;
76795;SDS011;65745;50.278;18.192;2023-06-10T09:06:52;10.20;;;9.20;;
76795;SDS011;65745;50.278;18.192;2023-06-10T09:09:26;10.60;;;9.60;;
76795;SDS011;65745;50.278;18.192;2023-06-10T09:12:00;10.30;;;9.20;;
76795;SDS011;65745;50.278;18.192;2023-06-10T09:14:33;10.90;;;9.90;;
76795;SDS011;65745;50.278;18.192;2023-06-10T09:17:06;9.40;;;8.50;;
76795;SDS011;65745;50.278;18.192;2023-06-10T09:19:39;9.00;;;8.20;;
76795;SDS011;65745;50.278;18.192;2023-06-10T09:22:15;10.10;;;9.10;;
76795;SDS011;65745;50.278;18.192;2023-06-10T09:24:48;8.80;;;7.90;;
76795;SDS011;65745;50.278;18.192;2023-06-10T09:27:21;9.20;;;8.40;;
76795;SDS011;65745;50.278;18.192;2023-06-10T09:29:54;9.20;;;8.30;;
76795;SDS011;65745;50.278;18.192;2023-06-10T09:32:27;8.90;;;8.10;;
76795;SDS011;65745;50.278;18.192;2023-06-10T09:35:00;8.10;;;7.30;;
76795;SDS011;65745;50.278;18.192;2023-06-10T09:37:41;8.10;;;7.40;;
76795;SDS011;65745;50.278;18.192;2023-06-10T09:40:16;7.40;;;6.70;;
76795;SDS011;65745;50.278;18.192;2023-06-10T09:42:52;8.70;;;7.80;;
76795;SDS011;65745;50.278;18.192;2023-06-10T09:45:28;8.40;;;7.50;;
76795;SDS011;65745;50.278;18.192;2023-06-10T09:48:02;9.50;;;7.90;;
76795;SDS011;65745;50.278;18.192;2023-06-10T09:50:36;8.20;;;7.40;;
76795;SDS011;65745;50.278;18.192;2023-06-10T09:53:14;9.00;;;8.10;;
76795;SDS011;65745;50.278;18.192;2023-06-10T09:55:48;9.10;;;8.30;;
76795;SDS011;65745;50.278;18.192;2023-06-10T09:58:34;9.40;;;8.50;;
76795;SDS011;65745;50.278;18.192;2023-06-10T10:01:08;8.30;;;7.60;;
76795;SDS011;65745;50.278;18.192;2023-06-10T10:03:45;8.00;;;7.40;;
76795;SDS011;65745;50.278;18.192;2023-06-10T10:06:18;8.30;;;7.50;;
76795;SDS011;65745;50.278;18.192;2023-06-10T10:08:51;8.50;;;7.70;;
76795;SDS011;65745;50.278;18.192;2023-06-10T10:11:24;7.90;;;7.20;;
76795;SDS011;65745;50.278;18.192;2023-06-10T10:13:57;6.90;;;6.30;;
76795;SDS011;65745;50.278;18.192;2023-06-10T10:16:32;8.30;;;7.60;;
76795;SDS011;65745;50.278;18.192;2023-06-10T10:19:10;6.80;;;6.20;;
76795;SDS011;65745;50.278;18.192;2023-06-10T10:21:49;7.90;;;7.10;;
76795;SDS011;65745;50.278;18.192;2023-06-10T10:24:29;12.90;;;6.90;;
76795;SDS011;65745;50.278;18.192;2023-06-10T10:27:05;8.60;;;6.50;;
76795;SDS011;65745;50.278;18.192;2023-06-10T10:29:45;7.20;;;6.10;;
76795;SDS011;65745;50.278;18.192;2023-06-10T10:32:24;9.40;;;7.40;;
76795;SDS011;65745;50.278;18.192;2023-06-10T10:35:06;7.90;;;7.10;;
76795;SDS011;65745;50.278;18.192;2023-06-10T10:37:43;8.00;;;7.20;;
76795;SDS011;65745;50.278;18.192;2023-06-10T10:40:16;7.80;;;7.10;;
76795;SDS011;65745;50.278;18.192;2023-06-10T10:42:49;8.40;;;7.40;;
76795;SDS011;65745;50.278;18.192;2023-06-10T10:45:24;9.80;;;8.00;;
76795;SDS011;65745;50.278;18.192;2023-06-10T10:47:59;8.10;;;7.40;;
76795;SDS011;65745;50.278;18.192;2023-06-10T10:50:41;7.40;;;6.50;;
76795;SDS011;65745;50.278;18.192;2023-06-10T10:53:13;7.90;;;7.20;;
76795;SDS011;65745;50.278;18.192;2023-06-10T10:55:59;7.80;;;6.30;;
76795;SDS011;65745;50.278;18.192;2023-06-10T10:58:34;8.70;;;7.90;;
76795;SDS011;65745;50.278;18.192;2023-06-10T11:01:11;8.00;;;7.00;;
76795;SDS011;65745;50.278;18.192;2023-06-10T11:03:45;7.30;;;6.60;;
76795;SDS011;65745;50.278;18.192;2023-06-10T11:06:18;7.70;;;6.80;;
76795;SDS011;65745;50.278;18.192;2023-06-10T11:08:50;6.70;;;6.00;;
76795;SDS011;65745;50.278;18.192;2023-06-10T11:11:24;6.60;;;6.00;;
76795;SDS011;65745;50.278;18.192;2023-06-10T11:14:06;7.00;;;5.70;;
76795;SDS011;65745;50.278;18.192;2023-06-10T11:16:40;6.60;;;6.00;;
76795;SDS011;65745;50.278;18.192;2023-06-10T11:22:07;7.40;;;5.60;;
76795;SDS011;65745;50.278;18.192;2023-06-10T11:24:49;6.60;;;5.70;;
76795;SDS011;65745;50.278;18.192;2023-06-10T11:27:22;6.40;;;5.80;;
76795;SDS011;65745;50.278;18.192;2023-06-10T11:30:21;5.90;;;4.80;;
76795;SDS011;65745;50.278;18.192;2023-06-10T11:33:05;5.80;;;5.30;;
76795;SDS011;65745;50.278;18.192;2023-06-10T11:35:38;6.60;;;4.80;;
76795;SDS011;65745;50.278;18.192;2023-06-10T11:38:13;5.30;;;4.20;;
76795;SDS011;65745;50.278;18.192;2023-06-10T11:40:47;6.30;;;4.80;;
76795;SDS011;65745;50.278;18.192;2023-06-10T11:43:20;5.90;;;4.70;;
76795;SDS011;65745;50.278;18.192;2023-06-10T11:45:55;5.40;;;4.90;;
76795;SDS011;65745;50.278;18.192;2023-06-10T11:48:29;5.50;;;4.90;;
76795;SDS011;65745;50.278;18.192;2023-06-10T11:51:06;6.20;;;5.30;;
76795;SDS011;65745;50.278;18.192;2023-06-10T11:53:39;6.00;;;5.40;;
76795;SDS011;65745;50.278;18.192;2023-06-10T11:56:14;5.60;;;5.00;;
76795;SDS011;65745;50.278;18.192;2023-06-10T11:58:55;7.20;;;6.00;;
76795;SDS011;65745;50.278;18.192;2023-06-10T12:01:33;6.20;;;5.60;;
76795;SDS011;65745;50.278;18.192;2023-06-10T12:04:12;6.20;;;5.30;;
76795;SDS011;65745;50.278;18.192;2023-06-10T12:06:48;5.80;;;5.20;;
76795;SDS011;65745;50.278;18.192;2023-06-10T12:09:22;8.30;;;5.50;;
76795;SDS011;65745;50.278;18.192;2023-06-10T12:11:58;7.00;;;5.40;;
76795;SDS011;65745;50.278;18.192;2023-06-10T12:14:51;5.60;;;5.10;;
76795;SDS011;65745;50.278;18.192;2023-06-10T12:17:36;6.20;;;5.60;;
76795;SDS011;65745;50.278;18.192;2023-06-10T12:20:23;6.10;;;5.50;;
76795;SDS011;65745;50.278;18.192;2023-06-10T12:22:57;7.00;;;5.70;;
76795;SDS011;65745;50.278;18.192;2023-06-10T12:25:30;6.80;;;5.80;;
76795;SDS011;65745;50.278;18.192;2023-06-10T12:28:03;5.70;;;5.30;;
76795;SDS011;65745;50.278;18.192;2023-06-10T12:30:36;6.30;;;5.70;;
76795;SDS011;65745;50.278;18.192;2023-06-10T12:33:16;6.20;;;5.30;;
76795;SDS011;65745;50.278;18.192;2023-06-10T12:35:51;6.60;;;5.70;;
76795;SDS011;65745;50.278;18.192;2023-06-10T12:38:24;5.90;;;5.30;;
76795;SDS011;65745;50.278;18.192;2023-06-10T12:41:02;7.60;;;6.70;;
76795;SDS011;65745;50.278;18.192;2023-06-10T12:43:35;6.60;;;6.00;;
76795;SDS011;65745;50.278;18.192;2023-06-10T12:46:10;6.30;;;5.70;;
76795;SDS011;65745;50.278;18.192;2023-06-10T12:48:50;7.40;;;6.50;;
76795;SDS011;65745;50.278;18.192;2023-06-10T12:51:24;6.50;;;5.80;;
76795;SDS011;65745;50.278;18.192;2023-06-10T12:53:56;5.60;;;5.10;;
76795;SDS011;65745;50.278;18.192;2023-06-10T12:56:28;5.40;;;4.90;;
76795;SDS011;65745;50.278;18.192;2023-06-10T12:59:01;5.10;;;4.60;;
76795;SDS011;65745;50.278;18.192;2023-06-10T13:01:33;5.80;;;4.20;;
76795;SDS011;65745;50.278;18.192;2023-06-10T13:04:06;12.00;;;5.40;;
76795;SDS011;65745;50.278;18.192;2023-06-10T13:06:38;6.20;;;5.20;;
76795;SDS011;65745;50.278;18.192;2023-06-10T13:09:11;5.60;;;5.10;;
76795;SDS011;65745;50.278;18.192;2023-06-10T13:11:44;5.70;;;5.20;;
76795;SDS011;65745;50.278;18.192;2023-06-10T13:14:17;7.60;;;6.90;;
76795;SDS011;65745;50.278;18.192;2023-06-10T13:16:49;8.80;;;6.10;;
76795;SDS011;65745;50.278;18.192;2023-06-10T13:19:24;7.30;;;6.60;;
76795;SDS011;65745;50.278;18.192;2023-06-10T13:21:56;9.20;;;6.40;;
76795;SDS011;65745;50.278;18.192;2023-06-10T13:24:29;7.50;;;6.80;;
76795;SDS011;65745;50.278;18.192;2023-06-10T13:27:01;8.00;;;7.20;;
76795;SDS011;65745;50.278;18.192;2023-06-10T13:29:35;9.10;;;8.00;;
76795;SDS011;65745;50.278;18.192;2023-06-10T13:32:08;8.90;;;8.00;;
76795;SDS011;65745;50.278;18.192;2023-06-10T13:34:40;8.30;;;7.50;;
76795;SDS011;65745;50.278;18.192;2023-06-10T13:37:13;7.90;;;7.10;;
76795;SDS011;65745;50.278;18.192;2023-06-10T13:39:46;8.80;;;8.00;;
76795;SDS011;65745;50.278;18.192;2023-06-10T13:42:20;8.50;;;7.60;;
76795;SDS011;65745;50.278;18.192;2023-06-10T13:44:52;9.20;;;8.20;;
76795;SDS011;65745;50.278;18.192;2023-06-10T13:47:25;8.60;;;7.70;;
76795;SDS011;65745;50.278;18.192;2023-06-10T13:49:58;8.60;;;7.90;;
76795;SDS011;65745;50.278;18.192;2023-06-10T13:52:31;8.90;;;8.00;;
76795;SDS011;65745;50.278;18.192;2023-06-10T13:55:04;12.00;;;8.20;;
76795;SDS011;65745;50.278;18.192;2023-06-10T13:57:37;8.10;;;7.40;;
76795;SDS011;65745;50.278;18.192;2023-06-10T14:00:10;10.30;;;7.90;;
76795;SDS011;65745;50.278;18.192;2023-06-10T14:02:43;9.40;;;8.10;;
76795;SDS011;65745;50.278;18.192;2023-06-10T14:05:17;8.70;;;7.80;;
76795;SDS011;65745;50.278;18.192;2023-06-10T14:07:49;8.70;;;7.70;;
76795;SDS011;65745;50.278;18.192;2023-06-10T14:10:21;7.90;;;7.20;;
76795;SDS011;65745;50.278;18.192;2023-06-10T14:12:54;8.60;;;7.90;;
76795;SDS011;65745;50.278;18.192;2023-06-10T14:15:26;10.20;;;8.50;;
76795;SDS011;65745;50.278;18.192;2023-06-10T14:17:58;8.40;;;7.60;;
76795;SDS011;65745;50.278;18.192;2023-06-10T14:20:31;7.70;;;7.00;;
76795;SDS011;65745;50.278;18.192;2023-06-10T14:23:03;9.30;;;8.40;;
76795;SDS011;65745;50.278;18.192;2023-06-10T14:25:36;7.50;;;6.90;;
76795;SDS011;65745;50.278;18.192;2023-06-10T14:28:09;7.70;;;6.50;;
76795;SDS011;65745;50.278;18.192;2023-06-10T14:30:41;11.60;;;7.10;;
76795;SDS011;65745;50.278;18.192;2023-06-10T14:33:13;12.50;;;8.50;;
76795;SDS011;65745;50.278;18.192;2023-06-10T14:35:46;9.30;;;7.40;;
76795;SDS011;65745;50.278;18.192;2023-06-10T14:38:19;10.30;;;7.90;;
76795;SDS011;65745;50.278;18.192;2023-06-10T14:40:51;9.90;;;7.40;;
76795;SDS011;65745;50.278;18.192;2023-06-10T14:43:24;13.60;;;12.30;;
76795;SDS011;65745;50.278;18.192;2023-06-10T14:45:56;16.60;;;15.10;;
76795;SDS011;65745;50.278;18.192;2023-06-10T14:48:28;11.40;;;10.40;;
76795;SDS011;65745;50.278;18.192;2023-06-10T14:51:01;9.30;;;8.40;;
76795;SDS011;65745;50.278;18.192;2023-06-10T14:53:33;8.70;;;7.90;;
76795;SDS011;65745;50.278;18.192;2023-06-10T14:56:05;8.40;;;7.50;;
76795;SDS011;65745;50.278;18.192;2023-06-10T14:58:37;8.80;;;7.90;;
76795;SDS011;65745;50.278;18.192;2023-06-10T15:01:10;7.40;;;6.00;;
76795;SDS011;65745;50.278;18.192;2023-06-10T15:03:42;7.60;;;6.80;;